sensor_id;sensor_type;location;lat;lon;timestamp;temperature;humidity
26035;DHT22;13809;48.632;11.576;2023-04-12T00:04:50;9.80;31.60
26035;DHT22;13809;48.632;11.576;2023-04-12T00:09:56;9.70;31.30
26035;DHT22;13809;48.632;11.576;2023-04-12T00:15:00;9.80;31.30
26035;DHT22;13809;48.632;11.576;2023-04-12T00:20:05;9.70;31.50
26035;DHT22;13809;48.632;11.576;2023-04-12T00:25:12;9.70;31.50
26035;DHT22;13809;48.632;11.576;2023-04-12T00:30:17;9.60;31.40
26035;DHT22;13809;48.632;11.576;2023-04-12T00:35:20;9.60;31.90
26035;DHT22;13809;48.632;11.576;2023-04-12T00:40:23;9.50;31.60
26035;DHT22;13809;48.632;11.576;2023-04-12T00:45:28;9.50;32.00
26035;DHT22;13809;48.632;11.576;2023-04-12T00:50:31;9.50;32.40
26035;DHT22;13809;48.632;11.576;2023-04-12T00:55:34;9.50;32.30
26035;DHT22;13809;48.632;11.576;2023-04-12T01:00:39;9.50;32.40
26035;DHT22;13809;48.632;11.576;2023-04-12T01:05:51;9.50;32.70
26035;DHT22;13809;48.632;11.576;2023-04-12T01:10:59;9.50;33.40
26035;DHT22;13809;48.632;11.576;2023-04-12T01:16:10;9.50;33.00
26035;DHT22;13809;48.632;11.576;2023-04-12T01:21:17;9.50;34.10
26035;DHT22;13809;48.632;11.576;2023-04-12T01:26:30;9.50;33.00
26035;DHT22;13809;48.632;11.576;2023-04-12T01:31:39;9.60;34.00
26035;DHT22;13809;48.632;11.576;2023-04-12T01:36:43;9.60;33.60
26035;DHT22;13809;48.632;11.576;2023-04-12T01:41:49;9.60;33.00
26035;DHT22;13809;48.632;11.576;2023-04-12T01:46:54;9.60;33.00
26035;DHT22;13809;48.632;11.576;2023-04-12T01:52:02;9.60;33.40
26035;DHT22;13809;48.632;11.576;2023-04-12T01:57:10;9.60;33.80
26035;DHT22;13809;48.632;11.576;2023-04-12T02:02:15;9.50;33.30
26035;DHT22;13809;48.632;11.576;2023-04-12T02:07:18;9.50;34.00
26035;DHT22;13809;48.632;11.576;2023-04-12T02:12:22;9.40;33.90
26035;DHT22;13809;48.632;11.576;2023-04-12T02:17:26;9.40;34.30
26035;DHT22;13809;48.632;11.576;2023-04-12T02:22:30;9.40;34.70
26035;DHT22;13809;48.632;11.576;2023-04-12T02:27:33;9.40;34.30
26035;DHT22;13809;48.632;11.576;2023-04-12T02:32:38;9.50;34.50
26035;DHT22;13809;48.632;11.576;2023-04-12T02:37:46;9.60;35.00
26035;DHT22;13809;48.632;11.576;2023-04-12T02:42:49;9.60;34.70
26035;DHT22;13809;48.632;11.576;2023-04-12T02:47:54;9.60;34.50
26035;DHT22;13809;48.632;11.576;2023-04-12T02:52:57;9.70;35.10
26035;DHT22;13809;48.632;11.576;2023-04-12T02:58:00;9.70;34.80
26035;DHT22;13809;48.632;11.576;2023-04-12T03:03:04;9.70;35.00
26035;DHT22;13809;48.632;11.576;2023-04-12T03:08:10;9.70;35.60
26035;DHT22;13809;48.632;11.576;2023-04-12T03:13:13;9.70;35.20
26035;DHT22;13809;48.632;11.576;2023-04-12T03:18:17;9.70;35.40
26035;DHT22;13809;48.632;11.576;2023-04-12T03:23:22;9.70;35.90
26035;DHT22;13809;48.632;11.576;2023-04-12T03:28:26;9.60;35.50
26035;DHT22;13809;48.632;11.576;2023-04-12T03:33:31;9.60;35.70
26035;DHT22;13809;48.632;11.576;2023-04-12T03:38:34;9.60;36.30
26035;DHT22;13809;48.632;11.576;2023-04-12T03:43:37;9.50;35.90
26035;DHT22;13809;48.632;11.576;2023-04-12T03:48:42;9.50;36.00
26035;DHT22;13809;48.632;11.576;2023-04-12T03:53:45;9.50;36.60
26035;DHT22;13809;48.632;11.576;2023-04-12T03:58:49;9.50;36.20
26035;DHT22;13809;48.632;11.576;2023-04-12T04:03:53;9.50;36.20
26035;DHT22;13809;48.632;11.576;2023-04-12T04:08:57;9.50;36.80
26035;DHT22;13809;48.632;11.576;2023-04-12T04:14:00;9.50;36.60
26035;DHT22;13809;48.632;11.576;2023-04-12T04:19:04;9.50;36.70
26035;DHT22;13809;48.632;11.576;2023-04-12T04:24:09;9.50;37.20
26035;DHT22;13809;48.632;11.576;2023-04-12T04:29:14;9.50;37.30
26035;DHT22;13809;48.632;11.576;2023-04-12T04:34:18;9.50;37.00
26035;DHT22;13809;48.632;11.576;2023-04-12T04:39:24;9.50;37.40
26035;DHT22;13809;48.632;11.576;2023-04-12T04:44:28;9.60;37.10
26035;DHT22;13809;48.632;11.576;2023-04-12T04:49:32;9.60;37.20
26035;DHT22;13809;48.632;11.576;2023-04-12T04:54:35;9.60;37.90
26035;DHT22;13809;48.632;11.576;2023-04-12T04:59:39;9.70;37.50
26035;DHT22;13809;48.632;11.576;2023-04-12T05:04:43;9.70;37.50
26035;DHT22;13809;48.632;11.576;2023-04-12T05:09:47;9.70;38.00
26035;DHT22;13809;48.632;11.576;2023-04-12T05:14:50;9.80;37.40
26035;DHT22;13809;48.632;11.576;2023-04-12T05:19:54;9.90;37.50
26035;DHT22;13809;48.632;11.576;2023-04-12T05:24:57;9.90;37.90
26035;DHT22;13809;48.632;11.576;2023-04-12T05:30:01;9.90;37.60
26035;DHT22;13809;48.632;11.576;2023-04-12T05:35:06;9.90;37.50
26035;DHT22;13809;48.632;11.576;2023-04-12T05:40:10;9.90;38.30
26035;DHT22;13809;48.632;11.576;2023-04-12T05:45:13;9.90;37.70
26035;DHT22;13809;48.632;11.576;2023-04-12T05:50:18;9.90;37.50
26035;DHT22;13809;48.632;11.576;2023-04-12T05:55:22;9.90;38.20
26035;DHT22;13809;48.632;11.576;2023-04-12T06:00:25;9.90;37.90
26035;DHT22;13809;48.632;11.576;2023-04-12T06:05:30;9.90;38.00
26035;DHT22;13809;48.632;11.576;2023-04-12T06:10:33;9.90;38.50
26035;DHT22;13809;48.632;11.576;2023-04-12T06:15:36;9.90;38.50
26035;DHT22;13809;48.632;11.576;2023-04-12T06:20:41;9.90;38.20
26035;DHT22;13809;48.632;11.576;2023-04-12T06:25:44;9.90;38.70
26035;DHT22;13809;48.632;11.576;2023-04-12T06:30:47;10.00;37.50
26035;DHT22;13809;48.632;11.576;2023-04-12T06:35:51;10.00;37.60
26035;DHT22;13809;48.632;11.576;2023-04-12T06:40:55;10.00;38.10
26035;DHT22;13809;48.632;11.576;2023-04-12T06:45:58;10.00;37.70
26035;DHT22;13809;48.632;11.576;2023-04-12T06:51:05;10.10;37.90
26035;DHT22;13809;48.632;11.576;2023-04-12T06:56:08;10.10;38.60
26035;DHT22;13809;48.632;11.576;2023-04-12T07:01:11;10.10;38.10
26035;DHT22;13809;48.632;11.576;2023-04-12T07:06:16;10.10;38.20
26035;DHT22;13809;48.632;11.576;2023-04-12T07:11:26;10.20;38.80
26035;DHT22;13809;48.632;11.576;2023-04-12T07:16:30;10.30;38.40
26035;DHT22;13809;48.632;11.576;2023-04-12T07:21:35;10.30;38.40
26035;DHT22;13809;48.632;11.576;2023-04-12T07:26:38;10.40;38.90
26035;DHT22;13809;48.632;11.576;2023-04-12T07:31:41;10.40;38.50
26035;DHT22;13809;48.632;11.576;2023-04-12T07:36:46;10.50;38.70
26035;DHT22;13809;48.632;11.576;2023-04-12T07:41:49;10.60;39.40
26035;DHT22;13809;48.632;11.576;2023-04-12T07:46:53;10.60;38.80
26035;DHT22;13809;48.632;11.576;2023-04-12T07:51:57;10.70;38.70
26035;DHT22;13809;48.632;11.576;2023-04-12T07:57:01;10.70;39.40
26035;DHT22;13809;48.632;11.576;2023-04-12T08:02:04;10.80;39.10
26035;DHT22;13809;48.632;11.576;2023-04-12T08:07:09;10.80;38.80
26035;DHT22;13809;48.632;11.576;2023-04-12T08:12:12;10.80;39.20
26035;DHT22;13809;48.632;11.576;2023-04-12T08:17:15;10.80;39.00
26035;DHT22;13809;48.632;11.576;2023-04-12T08:22:20;10.80;39.10
26035;DHT22;13809;48.632;11.576;2023-04-12T08:27:23;10.90;39.70
26035;DHT22;13809;48.632;11.576;2023-04-12T08:32:26;11.00;39.70
26035;DHT22;13809;48.632;11.576;2023-04-12T08:37:31;11.10;39.80
26035;DHT22;13809;48.632;11.576;2023-04-12T08:42:35;11.30;39.80
26035;DHT22;13809;48.632;11.576;2023-04-12T08:47:41;11.30;39.60
26035;DHT22;13809;48.632;11.576;2023-04-12T08:52:46;11.40;40.10
26035;DHT22;13809;48.632;11.576;2023-04-12T08:57:53;11.40;40.20
26035;DHT22;13809;48.632;11.576;2023-04-12T09:02:56;11.40;39.80
26035;DHT22;13809;48.632;11.576;2023-04-12T09:08:02;11.50;39.60
26035;DHT22;13809;48.632;11.576;2023-04-12T09:13:06;11.60;40.10
26035;DHT22;13809;48.632;11.576;2023-04-12T09:18:10;11.60;39.60
26035;DHT22;13809;48.632;11.576;2023-04-12T09:23:20;11.60;39.60
26035;DHT22;13809;48.632;11.576;2023-04-12T09:28:26;11.60;40.20
26035;DHT22;13809;48.632;11.576;2023-04-12T09:33:33;11.70;40.00
26035;DHT22;13809;48.632;11.576;2023-04-12T09:38:38;11.70;40.90
26035;DHT22;13809;48.632;11.576;2023-04-12T09:43:43;11.70;40.60
26035;DHT22;13809;48.632;11.576;2023-04-12T09:48:51;11.70;40.00
26035;DHT22;13809;48.632;11.576;2023-04-12T09:53:57;11.80;41.60
26035;DHT22;13809;48.632;11.576;2023-04-12T09:59:02;11.80;41.10
26035;DHT22;13809;48.632;11.576;2023-04-12T10:04:06;11.90;41.00
26035;DHT22;13809;48.632;11.576;2023-04-12T10:09:11;12.00;40.80
26035;DHT22;13809;48.632;11.576;2023-04-12T10:14:16;12.20;41.50
26035;DHT22;13809;48.632;11.576;2023-04-12T10:19:20;12.30;41.20
26035;DHT22;13809;48.632;11.576;2023-04-12T10:24:27;12.50;41.00
26035;DHT22;13809;48.632;11.576;2023-04-12T10:29:32;12.60;41.10
26035;DHT22;13809;48.632;11.576;2023-04-12T10:34:41;12.80;40.70
26035;DHT22;13809;48.632;11.576;2023-04-12T10:39:51;13.00;40.90
26035;DHT22;13809;48.632;11.576;2023-04-12T10:44:56;13.10;40.80
26035;DHT22;13809;48.632;11.576;2023-04-12T10:50:21;13.20;40.40
26035;DHT22;13809;48.632;11.576;2023-04-12T10:55:30;13.20;40.60
26035;DHT22;13809;48.632;11.576;2023-04-12T11:06:11;13.40;40.80
26035;DHT22;13809;48.632;11.576;2023-04-12T11:11:22;13.50;40.00
26035;DHT22;13809;48.632;11.576;2023-04-12T11:16:25;13.60;40.50
26035;DHT22;13809;48.632;11.576;2023-04-12T11:21:28;13.60;40.30
26035;DHT22;13809;48.632;11.576;2023-04-12T11:26:33;13.70;40.80
26035;DHT22;13809;48.632;11.576;2023-04-12T11:31:38;13.80;41.00
26035;DHT22;13809;48.632;11.576;2023-04-12T11:36:41;13.90;40.50
26035;DHT22;13809;48.632;11.576;2023-04-12T11:41:46;14.00;40.50
26035;DHT22;13809;48.632;11.576;2023-04-12T11:46:50;14.00;40.70
26035;DHT22;13809;48.632;11.576;2023-04-12T11:52:00;14.10;40.70
26035;DHT22;13809;48.632;11.576;2023-04-12T11:57:05;14.10;41.20
26035;DHT22;13809;48.632;11.576;2023-04-12T12:02:08;14.20;41.00
26035;DHT22;13809;48.632;11.576;2023-04-12T12:07:23;14.30;40.40
26035;DHT22;13809;48.632;11.576;2023-04-12T12:12:28;14.40;40.50
26035;DHT22;13809;48.632;11.576;2023-04-12T12:17:35;14.40;40.70
26035;DHT22;13809;48.632;11.576;2023-04-12T12:22:44;14.40;40.90
26035;DHT22;13809;48.632;11.576;2023-04-12T12:27:56;14.40;41.70
26035;DHT22;13809;48.632;11.576;2023-04-12T12:33:00;14.40;41.30
26035;DHT22;13809;48.632;11.576;2023-04-12T12:38:06;14.40;40.80
26035;DHT22;13809;48.632;11.576;2023-04-12T12:43:17;14.40;41.20
26035;DHT22;13809;48.632;11.576;2023-04-12T12:48:20;14.50;41.80
26035;DHT22;13809;48.632;11.576;2023-04-12T12:53:23;14.50;41.10
26035;DHT22;13809;48.632;11.576;2023-04-12T12:58:28;14.50;41.10
26035;DHT22;13809;48.632;11.576;2023-04-12T13:03:31;14.60;41.00
26035;DHT22;13809;48.632;11.576;2023-04-12T13:08:34;14.60;40.90
26035;DHT22;13809;48.632;11.576;2023-04-12T13:13:39;14.70;41.10
26035;DHT22;13809;48.632;11.576;2023-04-12T13:18:42;14.70;41.60
26035;DHT22;13809;48.632;11.576;2023-04-12T13:23:46;14.80;41.20
26035;DHT22;13809;48.632;11.576;2023-04-12T13:28:50;14.80;41.30
26035;DHT22;13809;48.632;11.576;2023-04-12T13:33:53;14.90;41.40
26035;DHT22;13809;48.632;11.576;2023-04-12T13:38:56;15.00;41.50
26035;DHT22;13809;48.632;11.576;2023-04-12T13:44:02;15.00;41.50
26035;DHT22;13809;48.632;11.576;2023-04-12T13:49:06;15.20;41.70
26035;DHT22;13809;48.632;11.576;2023-04-12T13:54:09;15.30;41.60
26035;DHT22;13809;48.632;11.576;2023-04-12T13:59:13;15.50;41.60
26035;DHT22;13809;48.632;11.576;2023-04-12T14:04:16;15.60;41.40
26035;DHT22;13809;48.632;11.576;2023-04-12T14:09:23;15.70;41.80
26035;DHT22;13809;48.632;11.576;2023-04-12T14:14:28;15.80;42.00
26035;DHT22;13809;48.632;11.576;2023-04-12T14:19:31;15.90;42.10
26035;DHT22;13809;48.632;11.576;2023-04-12T14:24:34;16.10;42.00
26035;DHT22;13809;48.632;11.576;2023-04-12T14:29:39;16.20;41.50
26035;DHT22;13809;48.632;11.576;2023-04-12T14:34:42;16.40;41.50
26035;DHT22;13809;48.632;11.576;2023-04-12T14:39:47;16.60;40.60
26035;DHT22;13809;48.632;11.576;2023-04-12T14:44:51;16.70;40.40
26035;DHT22;13809;48.632;11.576;2023-04-12T14:49:54;16.80;40.20
26035;DHT22;13809;48.632;11.576;2023-04-12T14:54:57;16.90;40.20
26035;DHT22;13809;48.632;11.576;2023-04-12T15:00:04;16.90;40.00
26035;DHT22;13809;48.632;11.576;2023-04-12T15:05:13;17.10;40.10
26035;DHT22;13809;48.632;11.576;2023-04-12T15:10:17;17.20;39.90
26035;DHT22;13809;48.632;11.576;2023-04-12T15:15:22;17.20;39.50
26035;DHT22;13809;48.632;11.576;2023-04-12T15:20:26;17.30;39.30
26035;DHT22;13809;48.632;11.576;2023-04-12T15:25:29;17.20;39.10
26035;DHT22;13809;48.632;11.576;2023-04-12T15:30:35;17.30;39.20
26035;DHT22;13809;48.632;11.576;2023-04-12T15:35:38;17.30;39.10
26035;DHT22;13809;48.632;11.576;2023-04-12T15:40:41;17.30;38.90
26035;DHT22;13809;48.632;11.576;2023-04-12T15:45:46;17.30;38.80
26035;DHT22;13809;48.632;11.576;2023-04-12T15:50:54;17.40;38.30
26035;DHT22;13809;48.632;11.576;2023-04-12T15:55:57;17.40;38.50
26035;DHT22;13809;48.632;11.576;2023-04-12T16:01:02;17.30;38.40
26035;DHT22;13809;48.632;11.576;2023-04-12T16:06:06;17.50;38.10
26035;DHT22;13809;48.632;11.576;2023-04-12T16:11:09;17.50;38.00
26035;DHT22;13809;48.632;11.576;2023-04-12T16:16:16;17.60;37.90
26035;DHT22;13809;48.632;11.576;2023-04-12T16:21:20;17.60;37.20
26035;DHT22;13809;48.632;11.576;2023-04-12T16:26:24;17.60;37.40
26035;DHT22;13809;48.632;11.576;2023-04-12T16:31:29;17.70;37.60
26035;DHT22;13809;48.632;11.576;2023-04-12T16:36:32;17.70;36.70
26035;DHT22;13809;48.632;11.576;2023-04-12T16:41:36;17.70;37.00
26035;DHT22;13809;48.632;11.576;2023-04-12T16:46:40;17.80;37.00
26035;DHT22;13809;48.632;11.576;2023-04-12T16:51:45;17.80;36.40
26035;DHT22;13809;48.632;11.576;2023-04-12T16:56:48;17.80;36.60
26035;DHT22;13809;48.632;11.576;2023-04-12T17:01:52;17.80;36.50
26035;DHT22;13809;48.632;11.576;2023-04-12T17:06:56;17.70;36.10
26035;DHT22;13809;48.632;11.576;2023-04-12T17:11:59;17.70;36.30
26035;DHT22;13809;48.632;11.576;2023-04-12T17:17:04;17.60;36.10
26035;DHT22;13809;48.632;11.576;2023-04-12T17:22:07;17.60;35.80
26035;DHT22;13809;48.632;11.576;2023-04-12T17:27:11;17.60;36.00
26035;DHT22;13809;48.632;11.576;2023-04-12T17:32:15;17.50;36.00
26035;DHT22;13809;48.632;11.576;2023-04-12T17:37:18;17.50;35.50
26035;DHT22;13809;48.632;11.576;2023-04-12T17:42:21;17.40;35.80
26035;DHT22;13809;48.632;11.576;2023-04-12T17:47:26;17.30;35.50
26035;DHT22;13809;48.632;11.576;2023-04-12T17:52:29;17.30;35.20
26035;DHT22;13809;48.632;11.576;2023-04-12T17:57:32;17.30;35.60
26035;DHT22;13809;48.632;11.576;2023-04-12T18:02:37;17.20;35.30
26035;DHT22;13809;48.632;11.576;2023-04-12T18:07:41;17.20;35.20
26035;DHT22;13809;48.632;11.576;2023-04-12T18:12:44;17.20;35.40
26035;DHT22;13809;48.632;11.576;2023-04-12T18:17:48;17.20;35.30
26035;DHT22;13809;48.632;11.576;2023-04-12T18:22:52;17.10;35.00
26035;DHT22;13809;48.632;11.576;2023-04-12T18:27:55;17.10;35.20
26035;DHT22;13809;48.632;11.576;2023-04-12T18:33:00;17.10;35.40
26035;DHT22;13809;48.632;11.576;2023-04-12T18:38:04;17.10;35.20
26035;DHT22;13809;48.632;11.576;2023-04-12T18:43:08;17.00;35.50
26035;DHT22;13809;48.632;11.576;2023-04-12T18:48:12;16.90;35.60
26035;DHT22;13809;48.632;11.576;2023-04-12T18:53:16;16.80;34.90
26035;DHT22;13809;48.632;11.576;2023-04-12T18:58:19;16.50;34.70
26035;DHT22;13809;48.632;11.576;2023-04-12T19:03:25;16.30;35.00
26035;DHT22;13809;48.632;11.576;2023-04-12T19:08:29;16.20;34.90
26035;DHT22;13809;48.632;11.576;2023-04-12T19:13:32;16.00;35.10
26035;DHT22;13809;48.632;11.576;2023-04-12T19:18:37;15.80;35.20
26035;DHT22;13809;48.632;11.576;2023-04-12T19:23:40;15.70;35.30
26035;DHT22;13809;48.632;11.576;2023-04-12T19:28:45;15.60;35.40
26035;DHT22;13809;48.632;11.576;2023-04-12T19:33:49;15.50;35.30
26035;DHT22;13809;48.632;11.576;2023-04-12T19:38:52;15.40;35.30
26035;DHT22;13809;48.632;11.576;2023-04-12T19:43:56;15.30;35.30
26035;DHT22;13809;48.632;11.576;2023-04-12T19:49:01;15.20;35.40
26035;DHT22;13809;48.632;11.576;2023-04-12T19:54:04;15.10;35.60
26035;DHT22;13809;48.632;11.576;2023-04-12T19:59:10;15.10;35.70
26035;DHT22;13809;48.632;11.576;2023-04-12T20:04:17;15.00;35.80
26035;DHT22;13809;48.632;11.576;2023-04-12T20:09:20;15.00;35.70
26035;DHT22;13809;48.632;11.576;2023-04-12T20:14:24;14.90;35.60
26035;DHT22;13809;48.632;11.576;2023-04-12T20:19:29;14.90;36.00
26035;DHT22;13809;48.632;11.576;2023-04-12T20:24:32;14.90;35.70
26035;DHT22;13809;48.632;11.576;2023-04-12T20:29:38;14.90;35.50
26035;DHT22;13809;48.632;11.576;2023-04-12T20:34:44;14.90;35.70
26035;DHT22;13809;48.632;11.576;2023-04-12T20:39:49;14.80;35.80
26035;DHT22;13809;48.632;11.576;2023-04-12T20:44:52;14.80;35.70
26035;DHT22;13809;48.632;11.576;2023-04-12T20:49:57;14.70;35.80
26035;DHT22;13809;48.632;11.576;2023-04-12T20:55:01;14.70;36.00
26035;DHT22;13809;48.632;11.576;2023-04-12T21:00:07;14.60;36.00
26035;DHT22;13809;48.632;11.576;2023-04-12T21:05:19;14.50;36.10
26035;DHT22;13809;48.632;11.576;2023-04-12T21:10:22;14.40;36.40
26035;DHT22;13809;48.632;11.576;2023-04-12T21:15:27;14.30;36.30
26035;DHT22;13809;48.632;11.576;2023-04-12T21:20:32;14.10;36.30
26035;DHT22;13809;48.632;11.576;2023-04-12T21:25:36;14.00;36.90
26035;DHT22;13809;48.632;11.576;2023-04-12T21:30:40;13.90;36.70
26035;DHT22;13809;48.632;11.576;2023-04-12T21:35:46;13.80;37.00
26035;DHT22;13809;48.632;11.576;2023-04-12T21:40:50;13.70;37.20
26035;DHT22;13809;48.632;11.576;2023-04-12T21:45:53;13.50;37.00
26035;DHT22;13809;48.632;11.576;2023-04-12T21:50:57;13.40;37.10
26035;DHT22;13809;48.632;11.576;2023-04-12T21:56:01;13.30;37.80
26035;DHT22;13809;48.632;11.576;2023-04-12T22:01:04;13.20;37.70
26035;DHT22;13809;48.632;11.576;2023-04-12T22:06:09;13.10;37.90
26035;DHT22;13809;48.632;11.576;2023-04-12T22:11:13;13.10;38.40
26035;DHT22;13809;48.632;11.576;2023-04-12T22:16:16;13.00;38.20
26035;DHT22;13809;48.632;11.576;2023-04-12T22:21:21;12.80;38.40
26035;DHT22;13809;48.632;11.576;2023-04-12T22:26:24;12.70;39.00
26035;DHT22;13809;48.632;11.576;2023-04-12T22:31:27;12.80;38.70
26035;DHT22;13809;48.632;11.576;2023-04-12T22:36:32;12.70;38.80
26035;DHT22;13809;48.632;11.576;2023-04-12T22:41:38;12.70;39.10
26035;DHT22;13809;48.632;11.576;2023-04-12T22:46:42;12.70;38.70
26035;DHT22;13809;48.632;11.576;2023-04-12T22:51:50;12.70;38.80
26035;DHT22;13809;48.632;11.576;2023-04-12T22:56:53;12.70;39.20
26035;DHT22;13809;48.632;11.576;2023-04-12T23:01:56;12.60;38.90
26035;DHT22;13809;48.632;11.576;2023-04-12T23:07:01;12.60;39.10
26035;DHT22;13809;48.632;11.576;2023-04-12T23:12:05;12.70;39.40
26035;DHT22;13809;48.632;11.576;2023-04-12T23:17:08;12.70;39.10
26035;DHT22;13809;48.632;11.576;2023-04-12T23:22:13;12.70;39.10
26035;DHT22;13809;48.632;11.576;2023-04-12T23:27:23;12.70;39.60
26035;DHT22;13809;48.632;11.576;2023-04-12T23:32:26;12.70;39.10
26035;DHT22;13809;48.632;11.576;2023-04-12T23:37:30;12.60;39.10
26035;DHT22;13809;48.632;11.576;2023-04-12T23:42:34;12.50;39.50
26035;DHT22;13809;48.632;11.576;2023-04-12T23:47:37;12.50;39.30
26035;DHT22;13809;48.632;11.576;2023-04-12T23:52:42;12.50;39.40
26035;DHT22;13809;48.632;11.576;2023-04-12T23:57:45;12.50;39.90
